createdAt,value
2023-06-09T00:02:20.321Z,8.97
2023-06-09T00:04:52.159Z,9.40
2023-06-09T00:07:23.940Z,10.80
2023-06-09T00:09:55.700Z,11.10
2023-06-09T00:12:27.481Z,10.65
2023-06-09T00:14:59.791Z,10.03
2023-06-09T00:17:31.592Z,10.30
2023-06-09T00:20:04.019Z,10.33
2023-06-09T00:22:43.680Z,10.30
2023-06-09T00:25:17.244Z,9.87
2023-06-09T00:27:49.038Z,10.77
2023-06-09T00:30:37.825Z,9.83
2023-06-09T00:33:11.281Z,10.07
2023-06-09T00:35:43.044Z,10.47
2023-06-09T00:38:15.192Z,10.77
2023-06-09T00:40:47.558Z,10.43
2023-06-09T00:43:19.344Z,11.47
2023-06-09T00:45:51.143Z,9.87
2023-06-09T00:48:23.065Z,10.40
2023-06-09T00:50:56.316Z,9.80
2023-06-09T00:53:29.010Z,10.90
2023-06-09T00:56:01.331Z,10.10
2023-06-09T00:58:33.988Z,12.40
2023-06-09T01:01:05.939Z,11.30
2023-06-09T01:03:39.409Z,10.83
2023-06-09T01:06:31.323Z,10.70
2023-06-09T01:09:09.553Z,10.50
2023-06-09T01:12:26.175Z,10.57
2023-06-09T01:15:08.037Z,10.67
2023-06-09T01:17:43.835Z,11.05
2023-06-09T01:20:25.170Z,9.77
2023-06-09T01:23:04.804Z,9.70
2023-06-09T01:25:44.878Z,10.83
2023-06-09T01:28:21.237Z,11.13
2023-06-09T01:30:54.330Z,11.23
2023-06-09T01:33:26.958Z,12.00
2023-06-09T01:35:59.140Z,10.70
2023-06-09T01:38:31.065Z,11.83
2023-06-09T01:41:02.844Z,10.70
2023-06-09T01:43:34.848Z,11.17
2023-06-09T01:46:06.718Z,11.03
2023-06-09T01:49:16.361Z,11.43
2023-06-09T01:52:01.398Z,10.93
2023-06-09T01:54:36.842Z,12.87
2023-06-09T01:57:19.098Z,10.80
2023-06-09T02:00:01.077Z,11.30
2023-06-09T02:02:34.762Z,12.10
2023-06-09T02:05:09.382Z,11.83
2023-06-09T02:07:42.869Z,11.33
2023-06-09T02:10:15.156Z,11.30
2023-06-09T02:12:47.005Z,11.47
2023-06-09T02:15:20.180Z,11.13
2023-06-09T02:17:51.992Z,11.50
2023-06-09T02:20:23.987Z,11.77
2023-06-09T02:22:56.203Z,11.17
2023-06-09T02:25:29.566Z,11.57
2023-06-09T02:28:04.558Z,11.97
2023-06-09T02:30:36.484Z,11.77
2023-06-09T02:33:08.396Z,11.10
2023-06-09T02:35:40.701Z,10.80
2023-06-09T02:38:12.898Z,10.53
2023-06-09T02:40:47.165Z,11.77
2023-06-09T02:43:19.242Z,12.70
2023-06-09T02:45:51.089Z,12.37
2023-06-09T02:48:22.863Z,11.73
2023-06-09T02:50:54.730Z,11.63
2023-06-09T02:53:29.721Z,11.88
2023-06-09T02:56:01.732Z,12.27
2023-06-09T02:58:33.480Z,11.50
2023-06-09T03:01:05.254Z,11.27
2023-06-09T03:03:39.516Z,11.60
2023-06-09T03:06:14.462Z,11.80
2023-06-09T03:08:46.490Z,12.33
2023-06-09T03:11:19.313Z,12.07
2023-06-09T03:13:51.074Z,11.33
2023-06-09T03:16:22.903Z,12.80
2023-06-09T03:18:55.725Z,12.73
2023-06-09T03:21:27.594Z,13.00
2023-06-09T03:23:59.416Z,12.90
2023-06-09T03:26:31.581Z,13.10
2023-06-09T03:29:03.442Z,12.33
2023-06-09T03:31:35.507Z,11.63
2023-06-09T03:34:07.460Z,11.47
2023-06-09T03:36:39.284Z,11.87
2023-06-09T03:39:11.026Z,12.90
2023-06-09T03:41:42.719Z,13.57
2023-06-09T03:44:14.591Z,11.67
2023-06-09T03:46:46.436Z,12.37
2023-06-09T03:49:18.217Z,13.67
2023-06-09T03:51:49.986Z,13.23
2023-06-09T03:54:21.773Z,13.33
2023-06-09T03:56:53.876Z,13.15
2023-06-09T03:59:25.764Z,13.90
2023-06-09T04:01:57.623Z,13.67
2023-06-09T04:04:29.460Z,12.70
2023-06-09T04:07:01.242Z,13.00
2023-06-09T04:09:36.562Z,13.80
2023-06-09T04:12:08.798Z,13.30
2023-06-09T04:14:40.639Z,13.33
2023-06-09T04:17:12.595Z,12.87
2023-06-09T04:19:44.623Z,13.47
2023-06-09T04:22:16.792Z,12.20
2023-06-09T04:24:48.512Z,14.57
2023-06-09T04:27:20.566Z,13.43
2023-06-09T04:29:52.737Z,11.93
2023-06-09T04:32:25.256Z,13.70
2023-06-09T04:34:57.936Z,14.07
2023-06-09T04:37:30.564Z,13.10
2023-06-09T04:40:02.711Z,14.57
2023-06-09T04:42:34.546Z,13.07
2023-06-09T04:45:06.879Z,13.80
2023-06-09T04:47:38.736Z,14.93
2023-06-09T04:50:11.700Z,15.90
2023-06-09T04:52:47.003Z,14.17
2023-06-09T04:55:19.361Z,14.20
2023-06-09T04:57:54.735Z,15.83
2023-06-09T05:00:28.965Z,14.32
2023-06-09T05:03:06.947Z,14.97
2023-06-09T05:05:38.729Z,14.17
2023-06-09T05:08:10.662Z,13.47
2023-06-09T05:10:42.411Z,14.30
2023-06-09T05:13:14.301Z,15.53
2023-06-09T05:15:46.310Z,14.73
2023-06-09T05:18:19.022Z,14.10
2023-06-09T05:20:51.344Z,15.30
2023-06-09T05:23:23.172Z,14.13
2023-06-09T05:25:54.954Z,14.53
2023-06-09T05:28:26.685Z,14.90
2023-06-09T05:30:58.474Z,14.73
2023-06-09T05:33:30.603Z,14.40
2023-06-09T05:36:03.016Z,16.50
2023-06-09T05:38:34.755Z,14.83
2023-06-09T05:41:06.928Z,15.43
2023-06-09T05:43:38.691Z,14.00
2023-06-09T05:46:10.698Z,15.33
2023-06-09T05:48:42.492Z,15.80
2023-06-09T05:51:14.277Z,14.37
2023-06-09T05:53:46.640Z,13.67
2023-06-09T05:56:21.008Z,15.00
2023-06-09T05:58:53.197Z,14.20
2023-06-09T06:01:25.070Z,13.90
2023-06-09T06:03:57.088Z,13.60
2023-06-09T06:06:29.092Z,14.37
2023-06-09T06:09:00.815Z,15.33
2023-06-09T06:11:32.589Z,13.67
2023-06-09T06:14:04.458Z,13.87
2023-06-09T06:16:36.341Z,14.30
2023-06-09T06:19:08.248Z,13.88
2023-06-09T06:21:43.329Z,14.87
2023-06-09T06:24:15.696Z,14.00
2023-06-09T06:26:47.493Z,13.47
2023-06-09T06:29:19.284Z,14.20
2023-06-09T06:31:51.139Z,12.83
2023-06-09T06:34:23.485Z,13.77
2023-06-09T06:36:55.560Z,12.70
2023-06-09T06:39:28.856Z,12.57
2023-06-09T06:42:01.717Z,12.60
2023-06-09T06:44:33.597Z,11.47
2023-06-09T06:47:05.896Z,11.87
2023-06-09T06:49:37.749Z,13.47
2023-06-09T06:52:09.501Z,11.15
2023-06-09T06:54:41.256Z,12.20
2023-06-09T06:57:13.217Z,13.60
2023-06-09T06:59:45.089Z,11.67
2023-06-09T07:02:16.905Z,11.03
2023-06-09T07:04:49.252Z,11.40
2023-06-09T07:07:21.188Z,9.50
2023-06-09T07:09:53.016Z,10.50
2023-06-09T07:12:24.827Z,11.37
2023-06-09T07:14:59.543Z,10.60
2023-06-09T07:17:31.881Z,10.00
2023-06-09T07:20:04.802Z,9.67
2023-06-09T07:22:43.266Z,10.53
2023-06-09T07:25:15.020Z,10.63
2023-06-09T07:27:46.895Z,10.30
2023-06-09T07:30:18.828Z,10.93
2023-06-09T07:32:50.689Z,8.77
2023-06-09T07:35:24.322Z,9.20
2023-06-09T07:37:56.863Z,8.13
2023-06-09T07:40:29.091Z,7.70
2023-06-09T07:43:01.185Z,7.53
2023-06-09T07:45:33.155Z,6.80
2023-06-09T07:48:05.048Z,7.33
2023-06-09T07:50:46.927Z,7.10
2023-06-09T07:53:29.143Z,6.80
2023-06-09T07:56:01.094Z,6.75
2023-06-09T07:58:32.861Z,7.60
2023-06-09T08:01:05.048Z,6.43
2023-06-09T08:03:37.078Z,7.43
2023-06-09T08:06:09.358Z,6.27
2023-06-09T08:08:42.422Z,7.20
2023-06-09T08:11:14.389Z,7.63
2023-06-09T08:13:46.146Z,6.83
2023-06-09T08:16:18.100Z,7.20
2023-06-09T08:18:49.828Z,6.40
2023-06-09T08:21:21.603Z,7.33
2023-06-09T08:23:53.563Z,6.50
2023-06-09T08:26:26.046Z,7.00
2023-06-09T08:28:57.904Z,6.50
2023-06-09T08:31:29.671Z,5.93
2023-06-09T08:34:01.701Z,6.30
2023-06-09T08:36:33.503Z,6.38
2023-06-09T08:39:05.248Z,6.57
2023-06-09T08:41:40.076Z,5.90
2023-06-09T08:44:13.208Z,5.60
2023-06-09T08:46:49.391Z,7.35
2023-06-09T08:49:22.221Z,6.85
2023-06-09T08:51:54.315Z,6.55
2023-06-09T08:54:26.534Z,5.88
2023-06-09T08:56:59.763Z,6.63
2023-06-09T08:59:35.424Z,6.10
2023-06-09T09:02:09.911Z,6.40
2023-06-09T09:04:42.027Z,6.13
2023-06-09T09:07:14.384Z,5.50
2023-06-09T09:09:46.137Z,6.38
2023-06-09T09:12:17.896Z,6.75
2023-06-09T09:14:49.939Z,5.93
2023-06-09T09:17:21.723Z,5.28
2023-06-09T09:19:55.593Z,6.07
2023-06-09T09:22:27.571Z,6.38
2023-06-09T09:24:59.328Z,6.05
2023-06-09T09:27:31.075Z,6.20
2023-06-09T09:30:02.894Z,5.78
2023-06-09T09:32:34.730Z,4.70
2023-06-09T09:35:07.087Z,6.00
2023-06-09T09:37:42.030Z,5.57
2023-06-09T09:40:15.848Z,5.88
2023-06-09T09:42:48.278Z,5.75
2023-06-09T09:45:30.247Z,6.25
2023-06-09T09:48:13.330Z,5.43
2023-06-09T09:50:46.740Z,6.40
2023-06-09T09:53:22.275Z,5.82
2023-06-09T09:55:57.630Z,5.50
2023-06-09T09:58:31.033Z,5.75
2023-06-09T10:01:07.584Z,5.25
2023-06-09T10:03:42.690Z,5.13
2023-06-09T10:06:17.822Z,5.63
2023-06-09T10:08:49.970Z,5.15
2023-06-09T10:11:23.122Z,5.15
2023-06-09T10:13:54.881Z,5.90
2023-06-09T10:16:28.646Z,5.65
2023-06-09T10:19:01.087Z,5.03
2023-06-09T10:21:36.362Z,4.43
2023-06-09T10:24:09.283Z,4.75
2023-06-09T10:26:41.254Z,4.35
2023-06-09T10:29:15.505Z,4.65
2023-06-09T10:31:49.705Z,4.95
2023-06-09T10:34:22.679Z,5.20
2023-06-09T10:36:55.297Z,5.10
2023-06-09T10:39:34.117Z,4.80
2023-06-09T10:42:08.855Z,4.80
2023-06-09T10:44:54.701Z,5.53
2023-06-09T10:47:44.577Z,4.30
2023-06-09T10:50:33.201Z,4.95
2023-06-09T10:53:16.657Z,5.65
2023-06-09T10:55:48.609Z,5.22
2023-06-09T10:58:39.982Z,5.72
2023-06-09T11:01:11.794Z,5.55
2023-06-09T11:03:43.589Z,5.28
2023-06-09T11:06:15.381Z,6.00
2023-06-09T11:09:13.198Z,5.28
2023-06-09T11:11:52.658Z,5.65
2023-06-09T11:14:46.224Z,5.82
2023-06-09T11:17:19.150Z,5.35
2023-06-09T11:19:51.361Z,5.13
2023-06-09T11:22:23.939Z,5.90
2023-06-09T11:24:56.903Z,5.70
2023-06-09T11:27:28.679Z,5.88
2023-06-09T11:30:16.234Z,5.65
2023-06-09T11:32:59.328Z,5.25
2023-06-09T11:35:31.135Z,5.72
2023-06-09T11:38:19.849Z,5.32
2023-06-09T11:40:53.483Z,5.28
2023-06-09T11:43:26.838Z,5.03
2023-06-09T11:46:02.900Z,4.60
2023-06-09T11:48:35.014Z,4.70
2023-06-09T11:51:07.099Z,5.90
2023-06-09T11:53:39.862Z,6.10
2023-06-09T11:56:11.669Z,5.43
2023-06-09T11:58:43.863Z,5.87
2023-06-09T12:01:16.413Z,5.10
2023-06-09T12:03:48.245Z,5.07
2023-06-09T12:06:20.103Z,5.10
2023-06-09T12:08:51.825Z,4.93
2023-06-09T12:11:23.534Z,5.03
2023-06-09T12:13:57.188Z,5.33
2023-06-09T12:16:29.030Z,5.40
2023-06-09T12:19:00.958Z,4.83
2023-06-09T12:21:35.972Z,5.07
2023-06-09T12:24:07.810Z,4.43
2023-06-09T12:26:40.944Z,5.30
2023-06-09T12:29:12.793Z,5.10
2023-06-09T12:31:48.156Z,5.10
2023-06-09T12:34:27.639Z,5.27
2023-06-09T12:36:59.974Z,5.23
2023-06-09T12:39:34.215Z,4.20
2023-06-09T12:42:13.364Z,6.10
2023-06-09T12:44:48.511Z,5.07
2023-06-09T12:47:21.544Z,5.40
2023-06-09T12:49:53.504Z,5.03
2023-06-09T12:52:25.789Z,5.30
2023-06-09T12:55:09.483Z,5.77
2023-06-09T12:57:42.786Z,5.03
2023-06-09T13:00:22.078Z,4.90
2023-06-09T13:02:56.052Z,5.60
2023-06-09T13:05:34.109Z,6.07
2023-06-09T13:08:06.361Z,5.20
2023-06-09T13:10:38.267Z,4.97
2023-06-09T13:13:09.990Z,4.73
2023-06-09T13:15:41.754Z,4.33
2023-06-09T13:18:15.453Z,4.70
2023-06-09T13:20:47.210Z,5.23
2023-06-09T13:23:19.006Z,4.70
2023-06-09T13:25:51.272Z,4.93
2023-06-09T13:28:23.252Z,4.60
2023-06-09T13:30:55.171Z,4.53
2023-06-09T13:33:26.946Z,4.50
2023-06-09T13:35:58.679Z,4.80
2023-06-09T13:38:30.601Z,5.40
2023-06-09T13:41:02.638Z,4.10
2023-06-09T13:43:34.378Z,4.53
2023-06-09T13:46:06.097Z,4.70
2023-06-09T13:48:37.931Z,4.60
2023-06-09T13:51:10.003Z,4.60
2023-06-09T13:53:41.986Z,4.47
2023-06-09T13:56:15.181Z,5.90
2023-06-09T13:58:47.436Z,5.07
2023-06-09T14:01:19.947Z,4.77
2023-06-09T14:03:51.949Z,4.63
2023-06-09T14:06:26.823Z,5.60
2023-06-09T14:08:58.660Z,4.40
2023-06-09T14:11:30.429Z,4.83
2023-06-09T14:14:02.344Z,4.53
2023-06-09T14:16:35.193Z,5.30
2023-06-09T14:19:08.611Z,5.00
2023-06-09T14:21:40.611Z,5.60
2023-06-09T14:24:12.563Z,5.53
2023-06-09T14:26:44.475Z,5.10
2023-06-09T14:29:16.513Z,5.30
2023-06-09T14:31:48.337Z,4.63
2023-06-09T14:34:20.256Z,5.10
2023-06-09T14:36:52.494Z,5.40
2023-06-09T14:39:24.481Z,5.33
2023-06-09T14:41:56.231Z,5.40
2023-06-09T14:44:28.023Z,4.93
2023-06-09T14:46:59.848Z,5.33
2023-06-09T14:49:31.596Z,5.00
2023-06-09T14:52:03.760Z,6.03
2023-06-09T14:54:35.600Z,5.10
2023-06-09T14:57:07.454Z,5.60
2023-06-09T14:59:39.200Z,5.60
2023-06-09T15:02:11.359Z,5.50
2023-06-09T15:04:43.124Z,5.63
2023-06-09T15:07:17.159Z,5.13
2023-06-09T15:09:49.002Z,5.07
2023-06-09T15:12:20.806Z,5.37
2023-06-09T15:15:00.235Z,5.30
2023-06-09T15:17:32.981Z,5.67
2023-06-09T15:20:05.420Z,5.70
2023-06-09T15:22:39.960Z,5.07
2023-06-09T15:25:12.133Z,5.73
2023-06-09T15:27:46.204Z,5.10
2023-06-09T15:30:19.599Z,4.90
2023-06-09T15:32:51.376Z,5.50
2023-06-09T15:35:23.214Z,6.30
2023-06-09T15:37:57.919Z,5.07
2023-06-09T15:40:37.050Z,4.85
2023-06-09T15:43:09.555Z,6.40
2023-06-09T15:45:43.649Z,4.83
2023-06-09T15:48:16.069Z,5.20
2023-06-09T15:50:48.150Z,5.30
2023-06-09T15:53:21.576Z,5.10
2023-06-09T15:55:53.766Z,5.07
2023-06-09T15:58:25.476Z,5.57
2023-06-09T16:00:57.267Z,5.77
2023-06-09T16:03:31.564Z,4.27
2023-06-09T16:06:04.152Z,4.30
2023-06-09T16:08:36.236Z,4.73
2023-06-09T16:11:09.119Z,4.90
2023-06-09T16:13:41.761Z,4.77
2023-06-09T16:16:13.920Z,5.57
2023-06-09T16:18:45.661Z,6.10
2023-06-09T16:21:17.512Z,5.10
2023-06-09T16:23:49.475Z,5.47
2023-06-09T16:26:21.301Z,5.80
2023-06-09T16:28:53.105Z,5.30
2023-06-09T16:31:27.076Z,5.50
2023-06-09T16:33:58.910Z,6.30
2023-06-09T16:36:30.832Z,5.30
2023-06-09T16:39:02.703Z,5.83
2023-06-09T16:41:34.427Z,5.67
2023-06-09T16:44:06.565Z,5.07
2023-06-09T16:46:38.344Z,5.43
2023-06-09T16:49:10.238Z,5.33
2023-06-09T16:51:42.054Z,4.93
2023-06-09T16:54:13.929Z,5.00
2023-06-09T16:56:45.719Z,5.13
2023-06-09T16:59:17.526Z,6.70
2023-06-09T17:01:49.330Z,6.50
2023-06-09T17:04:21.132Z,6.13
2023-06-09T17:06:52.888Z,5.67
2023-06-09T17:09:24.640Z,7.17
2023-06-09T17:11:56.431Z,6.73
2023-06-09T17:14:28.184Z,6.30
2023-06-09T17:16:59.999Z,5.90
2023-06-09T17:19:31.960Z,6.60
2023-06-09T17:22:03.806Z,6.67
2023-06-09T17:24:35.586Z,7.07
2023-06-09T17:27:07.389Z,6.70
2023-06-09T17:29:39.096Z,7.30
2023-06-09T17:32:11.182Z,6.77
2023-06-09T17:34:43.112Z,7.40
2023-06-09T17:37:15.648Z,7.27
2023-06-09T17:39:47.564Z,6.83
2023-06-09T17:42:19.335Z,6.80
2023-06-09T17:44:51.750Z,7.47
2023-06-09T17:47:23.519Z,7.57
2023-06-09T17:49:55.339Z,6.60
2023-06-09T17:52:27.138Z,7.47
2023-06-09T17:54:58.998Z,7.80
2023-06-09T17:57:31.950Z,7.22
2023-06-09T18:00:06.574Z,7.70
2023-06-09T18:02:38.668Z,6.83
2023-06-09T18:05:11.730Z,7.55
2023-06-09T18:07:45.760Z,8.70
2023-06-09T18:10:18.094Z,6.82
2023-06-09T18:12:50.189Z,7.93
2023-06-09T18:15:23.758Z,7.97
2023-06-09T18:17:55.642Z,7.70
2023-06-09T18:20:27.451Z,7.80
2023-06-09T18:22:59.276Z,8.27
2023-06-09T18:25:32.838Z,9.43
2023-06-09T18:28:04.743Z,8.20
2023-06-09T18:30:36.733Z,9.67
2023-06-09T18:33:08.537Z,10.97
2023-06-09T18:35:40.393Z,9.60
2023-06-09T18:38:12.342Z,9.90
2023-06-09T18:40:44.177Z,9.70
2023-06-09T18:43:15.942Z,9.70
2023-06-09T18:45:47.988Z,11.60
2023-06-09T18:48:19.874Z,10.40
2023-06-09T18:50:51.731Z,10.00
2023-06-09T18:53:26.361Z,11.10
2023-06-09T18:55:59.935Z,11.33
2023-06-09T18:58:31.701Z,11.10
2023-06-09T19:01:03.490Z,11.57
2023-06-09T19:03:35.679Z,10.97
2023-06-09T19:06:07.836Z,10.20
2023-06-09T19:08:39.705Z,9.90
2023-06-09T19:11:12.310Z,9.95
2023-06-09T19:13:44.192Z,10.02
2023-06-09T19:16:16.148Z,11.30
2023-06-09T19:18:48.411Z,10.03
2023-06-09T19:21:20.726Z,10.10
2023-06-09T19:23:55.916Z,10.32
2023-06-09T19:26:27.809Z,10.80
2023-06-09T19:28:59.616Z,10.60
2023-06-09T19:31:32.074Z,11.10
2023-06-09T19:34:04.196Z,10.53
2023-06-09T19:36:35.944Z,10.73
2023-06-09T19:39:07.772Z,12.07
2023-06-09T19:41:39.542Z,11.10
2023-06-09T19:44:11.328Z,10.70
2023-06-09T19:46:43.135Z,10.60
2023-06-09T19:49:15.991Z,12.90
2023-06-09T19:51:47.783Z,12.50
2023-06-09T19:54:19.607Z,11.47
2023-06-09T19:56:51.371Z,10.70
2023-06-09T19:59:23.154Z,12.23
2023-06-09T20:01:55.010Z,10.70
2023-06-09T20:04:26.772Z,11.63
2023-06-09T20:06:58.793Z,10.20
2023-06-09T20:09:30.595Z,10.90
2023-06-09T20:12:02.347Z,13.07
2023-06-09T20:14:34.170Z,13.07
2023-06-09T20:17:06.097Z,13.50
2023-06-09T20:19:39.561Z,17.17
2023-06-09T20:22:11.308Z,12.93
2023-06-09T20:24:43.024Z,12.73
2023-06-09T20:27:15.833Z,15.10
2023-06-09T20:29:48.713Z,12.07
2023-06-09T20:32:20.754Z,13.80
2023-06-09T20:34:53.531Z,14.93
2023-06-09T20:37:25.313Z,15.57
2023-06-09T20:39:57.533Z,15.40
2023-06-09T20:42:29.308Z,13.03
2023-06-09T20:45:04.021Z,14.70
2023-06-09T20:47:36.684Z,15.40
2023-06-09T20:50:08.891Z,15.40
2023-06-09T20:52:40.924Z,14.50
2023-06-09T20:55:12.703Z,14.70
2023-06-09T20:57:44.447Z,14.23
2023-06-09T21:00:16.563Z,15.07
2023-06-09T21:02:49.086Z,16.10
2023-06-09T21:05:20.969Z,15.37
2023-06-09T21:07:53.248Z,14.03
2023-06-09T21:10:25.235Z,14.43
2023-06-09T21:12:57.045Z,13.27
2023-06-09T21:15:28.841Z,14.47
2023-06-09T21:18:01.353Z,13.10
2023-06-09T21:20:34.307Z,16.38
2023-06-09T21:23:06.460Z,14.00
2023-06-09T21:25:38.223Z,23.27
2023-06-09T21:28:13.461Z,15.50
2023-06-09T21:30:45.871Z,17.23
2023-06-09T21:33:17.653Z,17.07
2023-06-09T21:35:49.422Z,14.47
2023-06-09T21:38:21.356Z,13.43
2023-06-09T21:40:53.098Z,20.60
2023-06-09T21:43:24.832Z,17.30
2023-06-09T21:45:56.866Z,24.47
2023-06-09T21:48:28.609Z,25.00
2023-06-09T21:51:00.496Z,21.73
2023-06-09T21:53:32.246Z,15.87
2023-06-09T21:56:04.033Z,17.43
2023-06-09T21:58:35.845Z,14.07
2023-06-09T22:01:07.677Z,18.30
2023-06-09T22:03:39.494Z,15.50
2023-06-09T22:06:11.431Z,15.67
2023-06-09T22:08:43.579Z,15.50
2023-06-09T22:11:15.414Z,17.57
2023-06-09T22:13:47.651Z,21.10
2023-06-09T22:16:19.457Z,11.93
2023-06-09T22:18:52.409Z,15.13
2023-06-09T22:21:24.274Z,13.60
2023-06-09T22:23:57.352Z,13.77
2023-06-09T22:26:29.121Z,14.40
2023-06-09T22:29:01.485Z,12.50
2023-06-09T22:31:35.391Z,15.17
2023-06-09T22:34:08.014Z,12.70
2023-06-09T22:36:39.801Z,18.27
2023-06-09T22:39:14.257Z,16.43
2023-06-09T22:41:46.869Z,14.30
2023-06-09T22:44:18.820Z,13.70
2023-06-09T22:46:50.632Z,13.90
2023-06-09T22:49:22.814Z,14.73
2023-06-09T22:51:55.377Z,15.10
2023-06-09T22:54:28.244Z,15.27
2023-06-09T22:57:00.024Z,19.00
2023-06-09T22:59:32.136Z,14.30
2023-06-09T23:02:04.136Z,16.00
2023-06-09T23:04:35.928Z,14.40
2023-06-09T23:07:07.636Z,14.23
2023-06-09T23:09:39.438Z,13.70
2023-06-09T23:12:11.411Z,11.43
2023-06-09T23:14:43.572Z,12.07
2023-06-09T23:17:15.356Z,16.80
2023-06-09T23:19:47.277Z,15.10
2023-06-09T23:22:19.484Z,20.53
2023-06-09T23:24:51.585Z,16.50
2023-06-09T23:27:23.369Z,14.80
2023-06-09T23:29:56.403Z,15.63
2023-06-09T23:32:28.247Z,14.73
2023-06-09T23:35:00.079Z,12.77
2023-06-09T23:37:32.416Z,12.07
2023-06-09T23:40:07.059Z,15.13
2023-06-09T23:42:40.953Z,14.17
2023-06-09T23:45:13.154Z,16.93
2023-06-09T23:47:45.177Z,14.65
2023-06-09T23:50:17.040Z,14.87
2023-06-09T23:52:49.048Z,16.33
2023-06-09T23:55:20.966Z,14.43
2023-06-09T23:57:52.727Z,13.73
